Terminal Aerodrome Forecast
Issued by NWS

Home | Current Version | Previous Version | Text Only | Print | Product List | Glossary On
Versions: 1 2 3 4 5 6 7 8 9 10 11 12 13 14
281
FTUS42 KTAE 271738
TAFECP
TAF
KECP 271738Z 2718/2818 07009KT P6SM SCT050
     FM272000 19011KT P6SM SCT050 SCT250
     FM280100 00000KT P6SM SCT250
     FM281000 00000KT 4SM BR SCT250
     FM281300 09005KT P6SM FEW030 SCT250=

USA.gov is the U.S. government's official web portal to all federal, state and local government web resources and services.